createdAt,value
2022-12-29T00:00:13.935Z,3.50
2022-12-29T00:03:02.555Z,2.23
2022-12-29T00:05:56.743Z,2.37
2022-12-29T00:08:43.369Z,2.00
2022-12-29T00:11:30.142Z,2.20
2022-12-29T00:14:34.823Z,2.23
2022-12-29T00:17:21.689Z,2.00
2022-12-29T00:20:28.434Z,2.20
2022-12-29T00:23:32.567Z,1.70
2022-12-29T00:26:37.353Z,2.00
2022-12-29T00:29:41.590Z,2.00
2022-12-29T00:32:45.795Z,1.90
2022-12-29T00:35:40.489Z,2.27
2022-12-29T00:38:46.655Z,1.83
2022-12-29T00:41:51.011Z,2.10
2022-12-29T00:44:37.850Z,2.00
2022-12-29T00:47:24.651Z,2.10
2022-12-29T00:50:10.447Z,2.20
2022-12-29T00:52:58.771Z,2.40
2022-12-29T00:55:46.741Z,2.00
2022-12-29T00:58:33.271Z,2.40
2022-12-29T01:01:20.257Z,2.20
2022-12-29T01:04:07.629Z,1.97
2022-12-29T01:06:54.698Z,2.00
2022-12-29T01:09:59.986Z,1.90
2022-12-29T01:12:48.510Z,1.97
2022-12-29T01:15:35.345Z,1.93
2022-12-29T01:18:23.636Z,2.20
2022-12-29T01:21:12.061Z,2.20
2022-12-29T01:23:58.867Z,2.00
2022-12-29T01:26:47.821Z,2.10
2022-12-29T01:29:37.185Z,2.10
2022-12-29T01:32:25.537Z,2.10
2022-12-29T01:35:12.296Z,2.10
2022-12-29T01:37:59.036Z,1.90
2022-12-29T01:40:47.013Z,1.93
2022-12-29T01:43:44.040Z,2.20
2022-12-29T01:46:34.039Z,2.00
2022-12-29T01:49:24.196Z,2.30
2022-12-29T01:52:11.393Z,2.10
2022-12-29T01:54:59.354Z,1.97
2022-12-29T01:57:51.566Z,2.20
2022-12-29T02:00:39.838Z,1.97
2022-12-29T02:03:29.703Z,2.00
2022-12-29T02:06:20.934Z,2.03
2022-12-29T02:09:07.522Z,1.90
2022-12-29T02:11:55.215Z,2.30
2022-12-29T02:14:41.961Z,2.20
2022-12-29T02:17:45.302Z,1.90
2022-12-29T02:21:11.220Z,1.93
2022-12-29T02:24:22.997Z,1.90
2022-12-29T02:27:28.737Z,2.17
2022-12-29T02:30:50.256Z,2.33
2022-12-29T02:33:52.070Z,2.17
2022-12-29T02:36:45.507Z,1.90
2022-12-29T02:39:38.771Z,2.17
2022-12-29T02:42:32.480Z,2.10
2022-12-29T02:45:26.244Z,1.83
2022-12-29T02:48:20.143Z,2.30
2022-12-29T02:51:16.831Z,2.00
2022-12-29T02:54:21.993Z,2.03
2022-12-29T02:57:13.649Z,2.17
2022-12-29T03:00:04.591Z,1.80
2022-12-29T03:03:13.811Z,1.80
2022-12-29T03:06:15.615Z,1.97
2022-12-29T03:09:19.132Z,1.50
2022-12-29T03:12:20.659Z,2.00
2022-12-29T03:15:31.535Z,1.80
2022-12-29T03:18:25.093Z,2.30
2022-12-29T03:21:17.006Z,1.80
2022-12-29T03:24:05.951Z,2.00
2022-12-29T03:26:55.213Z,2.00
2022-12-29T03:29:53.427Z,2.23
2022-12-29T03:32:44.232Z,1.70
2022-12-29T03:35:37.567Z,1.83
2022-12-29T03:38:37.366Z,2.00
2022-12-29T03:41:28.897Z,2.20
2022-12-29T03:44:16.715Z,2.43
2022-12-29T03:47:04.716Z,2.30
2022-12-29T03:49:52.554Z,1.93
2022-12-29T03:52:39.657Z,1.80
2022-12-29T03:55:29.045Z,1.90
2022-12-29T03:58:17.427Z,2.00
2022-12-29T04:01:19.395Z,1.50
2022-12-29T04:04:07.703Z,1.80
2022-12-29T04:06:54.471Z,1.90
2022-12-29T04:09:41.741Z,1.90
2022-12-29T04:12:32.799Z,1.77
2022-12-29T04:15:20.160Z,1.60
2022-12-29T04:18:07.054Z,1.70
2022-12-29T04:21:03.930Z,1.73
2022-12-29T04:23:52.635Z,1.43
2022-12-29T04:26:39.512Z,1.60
2022-12-29T04:29:46.514Z,2.10
2022-12-29T04:32:51.654Z,1.73
2022-12-29T04:35:38.421Z,1.80
2022-12-29T04:38:26.068Z,1.60
2022-12-29T04:41:12.805Z,1.97
2022-12-29T04:44:00.099Z,1.93
2022-12-29T04:46:57.514Z,2.20
2022-12-29T04:50:09.982Z,1.83
2022-12-29T04:53:09.557Z,1.70
2022-12-29T04:55:56.271Z,2.03
2022-12-29T04:58:43.144Z,1.70
2022-12-29T05:01:29.978Z,1.60
2022-12-29T05:04:19.601Z,1.70
2022-12-29T05:07:07.511Z,1.90
2022-12-29T05:09:54.309Z,1.70
2022-12-29T05:12:41.394Z,1.67
2022-12-29T05:15:27.977Z,2.00
2022-12-29T05:18:14.932Z,1.70
2022-12-29T05:21:03.201Z,1.97
2022-12-29T05:23:49.983Z,1.80
2022-12-29T05:26:36.869Z,1.90
2022-12-29T05:29:56.043Z,1.67
2022-12-29T05:32:43.065Z,1.70
2022-12-29T05:35:30.245Z,1.80
2022-12-29T05:38:18.620Z,1.80
2022-12-29T05:41:05.596Z,1.90
2022-12-29T05:44:21.872Z,2.00
2022-12-29T05:47:27.458Z,2.00
2022-12-29T05:50:32.688Z,1.97
2022-12-29T05:53:33.154Z,1.40
2022-12-29T05:56:21.020Z,1.90
2022-12-29T05:59:14.265Z,1.80
2022-12-29T06:02:02.777Z,1.70
2022-12-29T06:04:49.640Z,1.90
2022-12-29T06:07:36.613Z,1.70
2022-12-29T06:10:25.265Z,1.60
2022-12-29T06:13:19.942Z,1.63
2022-12-29T06:16:09.277Z,1.60
2022-12-29T06:18:57.821Z,2.13
2022-12-29T06:21:44.532Z,1.77
2022-12-29T06:24:31.343Z,2.00
2022-12-29T06:27:19.489Z,1.90
2022-12-29T06:30:10.099Z,1.90
2022-12-29T06:32:58.538Z,1.73
2022-12-29T06:35:46.952Z,1.50
2022-12-29T06:38:36.328Z,1.70
2022-12-29T06:41:28.385Z,1.60
2022-12-29T06:44:43.947Z,1.93
2022-12-29T06:47:30.478Z,1.60
2022-12-29T06:50:17.403Z,1.73
2022-12-29T06:53:04.191Z,1.90
2022-12-29T06:55:51.512Z,1.40
2022-12-29T06:58:38.079Z,2.00
2022-12-29T07:01:26.394Z,2.03
2022-12-29T07:04:13.357Z,1.60
2022-12-29T07:07:00.086Z,1.40
2022-12-29T07:09:46.941Z,1.40
2022-12-29T07:12:33.830Z,1.80
2022-12-29T07:15:20.731Z,1.67
2022-12-29T07:18:08.690Z,1.57
2022-12-29T07:20:55.243Z,1.60
2022-12-29T07:23:42.098Z,1.40
2022-12-29T07:26:35.911Z,1.73
2022-12-29T07:29:23.176Z,1.73
2022-12-29T07:32:10.196Z,1.60
2022-12-29T07:34:58.553Z,1.40
2022-12-29T07:37:45.456Z,1.60
2022-12-29T07:40:32.171Z,1.43
2022-12-29T07:43:19.146Z,1.50
2022-12-29T07:46:53.779Z,1.27
2022-12-29T07:49:32.608Z,1.47
2022-12-29T07:52:20.706Z,1.47
2022-12-29T07:55:08.672Z,1.67
2022-12-29T07:57:55.685Z,1.70
2022-12-29T08:00:42.618Z,1.60
2022-12-29T08:03:29.468Z,1.00
2022-12-29T08:06:16.278Z,1.60
2022-12-29T08:09:13.651Z,1.10
2022-12-29T08:12:01.444Z,1.50
2022-12-29T08:14:48.323Z,1.20
2022-12-29T08:17:35.106Z,1.10
2022-12-29T08:20:21.903Z,1.50
2022-12-29T08:23:08.889Z,1.23
2022-12-29T08:26:00.623Z,1.23
2022-12-29T08:28:47.418Z,0.97
2022-12-29T08:31:34.406Z,1.27
2022-12-29T08:34:21.337Z,1.30
2022-12-29T08:37:08.053Z,1.77
2022-12-29T08:39:54.962Z,1.40
2022-12-29T08:42:43.467Z,1.40
2022-12-29T08:45:30.269Z,1.40
2022-12-29T08:48:19.284Z,1.40
2022-12-29T08:51:06.481Z,1.30
2022-12-29T08:53:53.557Z,1.40
2022-12-29T08:56:40.832Z,1.57
2022-12-29T08:59:29.976Z,1.67
2022-12-29T09:02:22.114Z,1.63
2022-12-29T09:05:11.864Z,1.50
2022-12-29T09:07:58.644Z,1.30
2022-12-29T09:10:46.463Z,1.40
2022-12-29T09:13:33.232Z,1.93
2022-12-29T09:16:24.293Z,1.50
2022-12-29T09:19:11.331Z,1.40
2022-12-29T09:21:58.216Z,1.50
2022-12-29T09:24:45.148Z,1.87
2022-12-29T09:27:32.209Z,1.67
2022-12-29T09:30:19.061Z,1.50
2022-12-29T09:33:06.871Z,1.37
2022-12-29T09:35:54.815Z,1.40
2022-12-29T09:38:41.663Z,1.50
2022-12-29T09:41:36.732Z,1.60
2022-12-29T09:44:28.501Z,1.40
2022-12-29T09:47:18.482Z,1.50
2022-12-29T09:50:22.153Z,1.67
2022-12-29T09:53:17.190Z,1.50
2022-12-29T09:56:04.763Z,1.30
2022-12-29T09:58:56.643Z,1.33
2022-12-29T10:01:48.642Z,1.27
2022-12-29T10:04:35.648Z,1.50
2022-12-29T10:07:33.714Z,1.30
2022-12-29T10:10:32.357Z,1.37
2022-12-29T10:13:30.574Z,1.57
2022-12-29T10:16:26.889Z,1.40
2022-12-29T10:19:46.209Z,1.40
2022-12-29T10:22:55.429Z,1.30
2022-12-29T10:25:46.208Z,1.37
2022-12-29T10:28:41.438Z,1.70
2022-12-29T10:31:36.603Z,1.33
2022-12-29T10:34:27.440Z,1.30
2022-12-29T10:37:33.459Z,1.40
2022-12-29T10:40:29.595Z,1.47
2022-12-29T10:43:28.122Z,1.33
2022-12-29T10:46:18.647Z,1.50
2022-12-29T10:49:05.610Z,1.60
2022-12-29T10:51:54.988Z,1.67
2022-12-29T10:54:50.643Z,1.83
2022-12-29T10:57:41.964Z,1.37
2022-12-29T11:00:28.880Z,1.30
2022-12-29T11:03:43.924Z,1.40
2022-12-29T11:06:31.509Z,1.57
2022-12-29T11:09:41.454Z,1.90
2022-12-29T11:12:31.615Z,1.40
2022-12-29T11:15:19.789Z,1.60
2022-12-29T11:18:06.750Z,1.23
2022-12-29T11:20:55.588Z,1.33
2022-12-29T11:23:43.989Z,1.50
2022-12-29T11:26:34.777Z,1.40
2022-12-29T11:29:30.477Z,1.40
2022-12-29T11:32:28.500Z,1.40
2022-12-29T11:35:32.949Z,1.40
2022-12-29T11:38:23.941Z,1.20
2022-12-29T11:41:15.304Z,1.50
2022-12-29T11:44:05.907Z,1.70
2022-12-29T11:46:54.177Z,1.50
2022-12-29T11:49:42.259Z,1.47
2022-12-29T11:52:32.216Z,1.50
2022-12-29T11:55:23.108Z,1.20
2022-12-29T11:58:18.188Z,1.30
2022-12-29T12:01:08.504Z,1.30
2022-12-29T12:04:03.429Z,1.30
2022-12-29T12:06:59.986Z,1.30
2022-12-29T12:09:52.837Z,1.20
2022-12-29T12:12:49.499Z,0.97
2022-12-29T12:15:45.866Z,0.97
2022-12-29T12:18:41.780Z,1.20
2022-12-29T12:21:40.448Z,1.07
2022-12-29T12:24:43.862Z,0.93
2022-12-29T12:27:37.318Z,1.10
2022-12-29T12:30:26.425Z,0.80
2022-12-29T12:33:20.528Z,1.00
2022-12-29T12:36:23.515Z,1.00
2022-12-29T12:39:21.274Z,1.00
2022-12-29T12:42:26.275Z,1.20
2022-12-29T12:45:37.252Z,0.90
2022-12-29T12:48:54.791Z,1.00
2022-12-29T12:51:50.590Z,1.10
2022-12-29T12:54:51.780Z,0.73
2022-12-29T12:57:51.471Z,0.80
2022-12-29T13:00:47.940Z,1.07
2022-12-29T13:03:49.355Z,0.93
2022-12-29T13:06:47.457Z,0.90
2022-12-29T13:09:53.878Z,1.10
2022-12-29T13:12:51.937Z,1.10
2022-12-29T13:15:47.096Z,0.90
2022-12-29T13:18:45.423Z,1.10
2022-12-29T13:21:57.317Z,0.97
2022-12-29T13:24:57.999Z,1.20
2022-12-29T13:27:53.550Z,0.77
2022-12-29T13:30:47.821Z,0.80
2022-12-29T13:33:43.825Z,0.90
2022-12-29T13:36:39.466Z,0.90
2022-12-29T13:39:33.808Z,0.90
2022-12-29T13:42:21.877Z,0.80
2022-12-29T13:45:16.039Z,0.80
2022-12-29T13:48:07.899Z,0.90
2022-12-29T13:50:57.728Z,0.70
2022-12-29T13:54:01.254Z,1.00
2022-12-29T13:56:53.650Z,0.80
2022-12-29T13:59:51.627Z,0.90
2022-12-29T14:02:53.504Z,1.00
2022-12-29T14:05:40.406Z,1.20
2022-12-29T14:08:27.050Z,0.93
2022-12-29T14:11:16.806Z,1.10
2022-12-29T14:14:14.388Z,0.87
2022-12-29T14:17:14.805Z,0.97
2022-12-29T14:20:08.717Z,1.00
2022-12-29T14:23:01.267Z,0.90
2022-12-29T14:26:00.941Z,0.97
2022-12-29T14:28:49.000Z,0.90
2022-12-29T14:31:41.828Z,0.83
2022-12-29T14:34:40.471Z,1.20
2022-12-29T14:37:30.837Z,1.17
2022-12-29T14:40:21.067Z,1.07
2022-12-29T14:43:16.300Z,1.20
2022-12-29T14:46:04.403Z,1.10
2022-12-29T14:48:58.558Z,1.20
2022-12-29T14:51:45.501Z,1.00
2022-12-29T14:54:54.954Z,1.00
2022-12-29T14:57:43.948Z,1.00
2022-12-29T15:00:35.383Z,1.20
2022-12-29T15:03:25.423Z,1.00
2022-12-29T15:06:17.971Z,1.10
2022-12-29T15:09:12.966Z,1.30
2022-12-29T15:12:11.113Z,1.10
2022-12-29T15:15:02.522Z,1.00
2022-12-29T15:17:50.127Z,2.30
2022-12-29T15:20:37.160Z,1.20
2022-12-29T15:23:24.786Z,1.20
2022-12-29T15:26:12.251Z,1.57
2022-12-29T15:29:00.453Z,1.10
2022-12-29T15:31:49.398Z,1.30
2022-12-29T15:34:36.358Z,1.50
2022-12-29T15:37:25.725Z,1.50
2022-12-29T15:40:25.333Z,1.30
2022-12-29T15:43:46.547Z,1.30
2022-12-29T15:46:35.599Z,1.20
2022-12-29T15:49:30.369Z,1.20
2022-12-29T15:52:21.238Z,1.30
2022-12-29T15:55:20.354Z,1.13
2022-12-29T15:58:20.433Z,1.20
2022-12-29T16:01:07.498Z,1.20
2022-12-29T16:03:56.636Z,1.10
2022-12-29T16:06:56.045Z,1.13
2022-12-29T16:09:45.057Z,1.20
2022-12-29T16:12:34.993Z,1.00
2022-12-29T16:15:22.439Z,1.20
2022-12-29T16:18:25.892Z,1.20
2022-12-29T16:21:21.837Z,1.50
2022-12-29T16:24:14.633Z,1.40
2022-12-29T16:27:08.630Z,1.40
2022-12-29T16:29:57.219Z,1.70
2022-12-29T16:32:48.679Z,1.40
2022-12-29T16:35:46.893Z,1.63
2022-12-29T16:38:36.347Z,1.83
2022-12-29T16:41:31.625Z,1.60
2022-12-29T16:44:20.582Z,1.47
2022-12-29T16:47:21.781Z,1.53
2022-12-29T16:50:15.375Z,1.43
2022-12-29T16:53:03.754Z,1.40
2022-12-29T16:55:53.814Z,1.30
2022-12-29T16:58:43.492Z,1.63
2022-12-29T17:01:32.502Z,1.63
2022-12-29T17:04:19.505Z,1.33
2022-12-29T17:07:17.464Z,1.93
2022-12-29T17:10:04.052Z,1.67
2022-12-29T17:12:52.402Z,1.57
2022-12-29T17:15:39.028Z,1.83
2022-12-29T17:18:25.654Z,1.50
2022-12-29T17:21:13.920Z,1.80
2022-12-29T17:24:02.229Z,1.70
2022-12-29T17:26:51.559Z,1.63
2022-12-29T17:29:42.547Z,1.50
2022-12-29T17:32:29.327Z,1.47
2022-12-29T17:35:16.920Z,1.87
2022-12-29T17:38:03.894Z,1.70
2022-12-29T17:40:51.740Z,1.57
2022-12-29T17:43:38.598Z,1.43
2022-12-29T17:46:26.875Z,2.07
2022-12-29T17:49:16.372Z,1.80
2022-12-29T17:52:03.108Z,1.87
2022-12-29T17:54:53.919Z,1.80
2022-12-29T17:57:40.815Z,1.63
2022-12-29T18:00:33.789Z,1.50
2022-12-29T18:03:27.577Z,2.00
2022-12-29T18:06:15.475Z,1.40
2022-12-29T18:09:02.974Z,1.30
2022-12-29T18:11:49.736Z,1.73
2022-12-29T18:14:37.142Z,1.23
2022-12-29T18:17:25.084Z,1.50
2022-12-29T18:20:13.628Z,1.13
2022-12-29T18:23:00.466Z,1.40
2022-12-29T18:25:51.533Z,1.30
2022-12-29T18:28:38.437Z,1.17
2022-12-29T18:31:27.772Z,1.37
2022-12-29T18:34:16.430Z,1.33
2022-12-29T18:37:04.351Z,1.23
2022-12-29T18:39:51.385Z,1.20
2022-12-29T18:42:38.243Z,1.43
2022-12-29T18:45:26.222Z,1.03
2022-12-29T18:48:12.795Z,1.33
2022-12-29T18:51:00.288Z,1.17
2022-12-29T18:53:49.086Z,1.17
2022-12-29T18:56:35.502Z,1.40
2022-12-29T18:59:22.148Z,1.10
2022-12-29T19:02:16.811Z,1.20
2022-12-29T19:05:08.032Z,1.30
2022-12-29T19:07:56.061Z,1.23
2022-12-29T19:10:45.554Z,1.40
2022-12-29T19:13:32.150Z,1.53
2022-12-29T19:16:21.517Z,1.47
2022-12-29T19:19:09.838Z,2.03
2022-12-29T19:21:58.208Z,1.50
2022-12-29T19:24:44.575Z,0.90
2022-12-29T19:27:33.901Z,1.40
2022-12-29T19:30:21.674Z,1.50
2022-12-29T19:33:10.248Z,1.67
2022-12-29T19:36:00.963Z,1.30
2022-12-29T19:38:48.445Z,1.43
2022-12-29T19:41:35.174Z,1.20
2022-12-29T19:44:24.314Z,1.13
2022-12-29T19:47:11.299Z,1.57
2022-12-29T19:49:58.114Z,1.33
2022-12-29T19:52:45.433Z,1.50
2022-12-29T19:55:33.225Z,1.73
2022-12-29T19:58:20.920Z,1.70
2022-12-29T20:01:12.333Z,1.83
2022-12-29T20:03:59.464Z,1.60
2022-12-29T20:06:46.041Z,1.77
2022-12-29T20:09:33.161Z,1.73
2022-12-29T20:12:25.736Z,2.10
2022-12-29T20:15:16.195Z,2.00
2022-12-29T20:18:14.195Z,2.00
2022-12-29T20:21:05.010Z,2.33
2022-12-29T20:23:52.839Z,2.23
2022-12-29T20:26:39.770Z,1.87
2022-12-29T20:29:26.972Z,2.03
2022-12-29T20:32:15.187Z,1.80
2022-12-29T20:35:03.301Z,2.03
2022-12-29T20:37:50.085Z,2.23
2022-12-29T20:40:44.135Z,2.20
2022-12-29T20:43:32.807Z,2.00
2022-12-29T20:46:21.800Z,2.10
2022-12-29T20:49:08.876Z,2.20
2022-12-29T20:52:06.237Z,2.07
2022-12-29T20:54:53.528Z,1.70
2022-12-29T20:58:13.997Z,1.90
2022-12-29T21:00:46.702Z,2.30
2022-12-29T21:03:33.695Z,1.80
2022-12-29T21:06:21.639Z,1.90
2022-12-29T21:09:09.694Z,1.87
2022-12-29T21:11:56.445Z,2.27
2022-12-29T21:14:45.831Z,2.03
2022-12-29T21:17:32.747Z,2.13
2022-12-29T21:20:20.827Z,2.03
2022-12-29T21:23:07.652Z,2.00
2022-12-29T21:25:56.342Z,2.37
2022-12-29T21:28:46.306Z,2.47
2022-12-29T21:31:34.966Z,2.53
2022-12-29T21:34:21.500Z,2.37
2022-12-29T21:37:08.459Z,2.07
2022-12-29T21:39:54.995Z,2.33
2022-12-29T21:42:43.171Z,2.03
2022-12-29T21:45:31.145Z,2.10
2022-12-29T21:48:24.344Z,2.03
2022-12-29T21:51:32.329Z,2.20
2022-12-29T21:54:37.737Z,2.20
2022-12-29T21:57:42.390Z,1.70
2022-12-29T22:00:48.067Z,1.63
2022-12-29T22:03:52.107Z,2.40
2022-12-29T22:06:56.236Z,1.87
2022-12-29T22:10:00.937Z,1.63
2022-12-29T22:13:00.093Z,1.93
2022-12-29T22:15:48.177Z,1.80
2022-12-29T22:18:35.152Z,1.50
2022-12-29T22:21:22.100Z,1.67
2022-12-29T22:24:10.584Z,1.70
2022-12-29T22:26:56.987Z,2.00
2022-12-29T22:29:43.813Z,1.70
2022-12-29T22:32:32.306Z,1.30
2022-12-29T22:35:19.003Z,1.53
2022-12-29T22:38:05.992Z,1.80
2022-12-29T22:40:52.839Z,1.60
2022-12-29T22:43:39.558Z,1.10
2022-12-29T22:46:26.561Z,1.30
2022-12-29T22:49:15.826Z,1.27
2022-12-29T22:52:03.016Z,1.10
2022-12-29T22:54:49.985Z,1.30
2022-12-29T22:57:37.389Z,1.27
2022-12-29T23:00:24.088Z,1.90
2022-12-29T23:03:11.734Z,1.50
2022-12-29T23:06:00.976Z,0.90
2022-12-29T23:08:48.141Z,1.20
2022-12-29T23:11:35.441Z,1.17
2022-12-29T23:14:22.290Z,1.07
2022-12-29T23:17:09.229Z,1.00
2022-12-29T23:19:56.127Z,1.57
2022-12-29T23:22:44.285Z,1.70
2022-12-29T23:25:30.990Z,1.20
2022-12-29T23:28:17.978Z,1.30
2022-12-29T23:31:04.873Z,1.43
2022-12-29T23:33:51.413Z,1.13
2022-12-29T23:36:38.829Z,1.27
2022-12-29T23:39:26.969Z,1.17
2022-12-29T23:42:13.608Z,1.37
2022-12-29T23:45:00.319Z,1.37
2022-12-29T23:47:47.180Z,1.40
2022-12-29T23:50:33.908Z,1.47
2022-12-29T23:53:20.776Z,1.10
2022-12-29T23:56:11.104Z,1.67
2022-12-29T23:58:57.578Z,1.10
